sensor_id;sensor_type;location;lat;lon;timestamp;pressure;altitude;pressure_sealevel;temperature;humidity
75221;BME280;63802;53.232;6.570;2024-03-07T00:00:44;102892.56;;;4.59;100.00
75221;BME280;63802;53.232;6.570;2024-03-07T00:03:10;102856.06;;;4.37;100.00
75221;BME280;63802;53.232;6.570;2024-03-07T00:05:38;102864.97;;;4.37;100.00
75221;BME280;63802;53.232;6.570;2024-03-07T00:08:05;102881.47;;;4.41;100.00
75221;BME280;63802;53.232;6.570;2024-03-07T00:10:31;102858.78;;;4.22;100.00
75221;BME280;63802;53.232;6.570;2024-03-07T00:13:03;102852.84;;;4.20;100.00
75221;BME280;63802;53.232;6.570;2024-03-07T00:15:41;102881.19;;;4.32;100.00
75221;BME280;63802;53.232;6.570;2024-03-07T00:18:16;102874.47;;;4.25;100.00
75221;BME280;63802;53.232;6.570;2024-03-07T00:20:47;102856.59;;;4.08;100.00
75221;BME280;63802;53.232;6.570;2024-03-07T00:23:34;102899.84;;;4.34;100.00
75221;BME280;63802;53.232;6.570;2024-03-07T00:26:05;102878.22;;;4.19;100.00
75221;BME280;63802;53.232;6.570;2024-03-07T00:28:31;102903.63;;;4.33;100.00
75221;BME280;63802;53.232;6.570;2024-03-07T00:31:15;102871.72;;;4.10;100.00
75221;BME280;63802;53.232;6.570;2024-03-07T00:34:10;102903.09;;;4.36;100.00
75221;BME280;63802;53.232;6.570;2024-03-07T00:40:15;102859.81;;;4.11;100.00
75221;BME280;63802;53.232;6.570;2024-03-07T00:42:48;102863.88;;;4.08;100.00
75221;BME280;63802;53.232;6.570;2024-03-07T00:54:27;102908.22;;;4.32;100.00
75221;BME280;63802;53.232;6.570;2024-03-07T00:56:52;102874.41;;;4.04;100.00
75221;BME280;63802;53.232;6.570;2024-03-07T00:59:37;102856.06;;;4.06;100.00
75221;BME280;63802;53.232;6.570;2024-03-07T01:02:14;102884.16;;;4.21;100.00
75221;BME280;63802;53.232;6.570;2024-03-07T01:08:25;102902.00;;;4.22;100.00
75221;BME280;63802;53.232;6.570;2024-03-07T01:11:05;102868.47;;;3.97;100.00
75221;BME280;63802;53.232;6.570;2024-03-07T01:13:40;102869.53;;;4.01;100.00
75221;BME280;63802;53.232;6.570;2024-03-07T01:16:07;102859.28;;;3.88;100.00
75221;BME280;63802;53.232;6.570;2024-03-07T01:18:33;102863.59;;;3.89;100.00
75221;BME280;63802;53.232;6.570;2024-03-07T01:21:05;102858.16;;;3.84;100.00
75221;BME280;63802;53.232;6.570;2024-03-07T01:23:40;102869.22;;;3.78;100.00
75221;BME280;63802;53.232;6.570;2024-03-07T01:26:06;102898.44;;;3.86;100.00
75221;BME280;63802;53.232;6.570;2024-03-07T01:28:32;102875.69;;;3.67;100.00
75221;BME280;63802;53.232;6.570;2024-03-07T01:30:58;102877.56;;;3.66;100.00
75221;BME280;63802;53.232;6.570;2024-03-07T01:33:24;102874.56;;;3.58;100.00
75221;BME280;63802;53.232;6.570;2024-03-07T01:36:14;102842.94;;;3.38;100.00
75221;BME280;63802;53.232;6.570;2024-03-07T01:38:40;102843.16;;;3.31;100.00
75221;BME280;63802;53.232;6.570;2024-03-07T01:41:05;102874.25;;;3.44;100.00
75221;BME280;63802;53.232;6.570;2024-03-07T01:43:33;102842.84;;;3.18;100.00
75221;BME280;63802;53.232;6.570;2024-03-07T01:46:17;102860.66;;;3.19;100.00
75221;BME280;63802;53.232;6.570;2024-03-07T01:48:46;102840.06;;;3.03;100.00
75221;BME280;63802;53.232;6.570;2024-03-07T01:51:36;102866.00;;;3.09;100.00
75221;BME280;63802;53.232;6.570;2024-03-07T01:54:39;102886.00;;;3.18;100.00
75221;BME280;63802;53.232;6.570;2024-03-07T01:57:23;102855.97;;;2.99;100.00
75221;BME280;63802;53.232;6.570;2024-03-07T02:00:07;102840.56;;;2.90;100.00
75221;BME280;63802;53.232;6.570;2024-03-07T02:02:34;102835.66;;;2.82;100.00
75221;BME280;63802;53.232;6.570;2024-03-07T02:05:01;102872.97;;;3.00;100.00
75221;BME280;63802;53.232;6.570;2024-03-07T02:07:36;102853.19;;;2.84;100.00
75221;BME280;63802;53.232;6.570;2024-03-07T02:10:30;102869.91;;;2.86;100.00
75221;BME280;63802;53.232;6.570;2024-03-07T02:13:07;102862.06;;;2.80;100.00
75221;BME280;63802;53.232;6.570;2024-03-07T02:15:39;102832.22;;;2.54;100.00
75221;BME280;63802;53.232;6.570;2024-03-07T02:18:10;102845.53;;;2.66;100.00
75221;BME280;63802;53.232;6.570;2024-03-07T02:20:36;102817.09;;;2.48;100.00
75221;BME280;63802;53.232;6.570;2024-03-07T02:23:02;102816.28;;;2.48;100.00
75221;BME280;63802;53.232;6.570;2024-03-07T02:25:30;102830.84;;;2.47;100.00
75221;BME280;63802;53.232;6.570;2024-03-07T02:27:57;102827.63;;;2.50;100.00
75221;BME280;63802;53.232;6.570;2024-03-07T02:30:24;102843.31;;;2.58;100.00
75221;BME280;63802;53.232;6.570;2024-03-07T02:32:49;102822.47;;;2.43;100.00
75221;BME280;63802;53.232;6.570;2024-03-07T02:35:19;102828.91;;;2.37;100.00
75221;BME280;63802;53.232;6.570;2024-03-07T02:37:44;102839.72;;;2.42;100.00
75221;BME280;63802;53.232;6.570;2024-03-07T02:40:11;102815.88;;;2.29;100.00
75221;BME280;63802;53.232;6.570;2024-03-07T02:42:37;102813.78;;;2.36;100.00
75221;BME280;63802;53.232;6.570;2024-03-07T02:45:03;102803.66;;;2.17;100.00
75221;BME280;63802;53.232;6.570;2024-03-07T02:47:32;102824.78;;;2.30;100.00
75221;BME280;63802;53.232;6.570;2024-03-07T02:50:19;102818.50;;;2.19;100.00
75221;BME280;63802;53.232;6.570;2024-03-07T02:52:50;102802.06;;;2.16;100.00
75221;BME280;63802;53.232;6.570;2024-03-07T03:06:43;102766.59;;;1.97;100.00
75221;BME280;63802;53.232;6.570;2024-03-07T03:09:46;102754.75;;;1.93;100.00
75221;BME280;63802;53.232;6.570;2024-03-07T03:12:25;102763.19;;;2.01;100.00
75221;BME280;63802;53.232;6.570;2024-03-07T03:14:51;102777.47;;;2.07;100.00
75221;BME280;63802;53.232;6.570;2024-03-07T03:17:18;102785.31;;;2.14;100.00
75221;BME280;63802;53.232;6.570;2024-03-07T03:19:44;102808.28;;;2.21;100.00
75221;BME280;63802;53.232;6.570;2024-03-07T03:22:25;102756.34;;;1.89;100.00
75221;BME280;63802;53.232;6.570;2024-03-07T03:24:55;102754.47;;;1.89;100.00
75221;BME280;63802;53.232;6.570;2024-03-07T03:27:27;102770.94;;;1.98;100.00
75221;BME280;63802;53.232;6.570;2024-03-07T03:30:02;102746.63;;;1.88;100.00
75221;BME280;63802;53.232;6.570;2024-03-07T03:32:29;102801.19;;;2.10;100.00
75221;BME280;63802;53.232;6.570;2024-03-07T03:34:58;102780.34;;;1.95;100.00
75221;BME280;63802;53.232;6.570;2024-03-07T03:37:24;102791.09;;;1.95;100.00
75221;BME280;63802;53.232;6.570;2024-03-07T03:39:55;102797.31;;;1.96;100.00
75221;BME280;63802;53.232;6.570;2024-03-07T03:42:21;102795.56;;;1.85;100.00
75221;BME280;63802;53.232;6.570;2024-03-07T03:44:47;102791.28;;;1.84;100.00
75221;BME280;63802;53.232;6.570;2024-03-07T03:47:16;102791.22;;;1.79;100.00
75221;BME280;63802;53.232;6.570;2024-03-07T03:49:41;102794.69;;;1.74;100.00
75221;BME280;63802;53.232;6.570;2024-03-07T03:52:07;102789.00;;;1.71;100.00
75221;BME280;63802;53.232;6.570;2024-03-07T03:54:33;102766.25;;;1.57;100.00
75221;BME280;63802;53.232;6.570;2024-03-07T03:56:59;102789.47;;;1.63;100.00
75221;BME280;63802;53.232;6.570;2024-03-07T03:59:25;102784.53;;;1.55;100.00
75221;BME280;63802;53.232;6.570;2024-03-07T04:01:50;102758.56;;;1.39;100.00
75221;BME280;63802;53.232;6.570;2024-03-07T04:04:16;102789.84;;;1.50;100.00
75221;BME280;63802;53.232;6.570;2024-03-07T04:06:42;102739.44;;;1.13;100.00
75221;BME280;63802;53.232;6.570;2024-03-07T04:09:07;102743.75;;;1.14;100.00
75221;BME280;63802;53.232;6.570;2024-03-07T04:12:12;102764.81;;;1.22;100.00
75221;BME280;63802;53.232;6.570;2024-03-07T04:14:55;102735.03;;;1.02;100.00
75221;BME280;63802;53.232;6.570;2024-03-07T04:17:32;102762.88;;;1.18;100.00
75221;BME280;63802;53.232;6.570;2024-03-07T04:20:19;102756.59;;;1.07;100.00
75221;BME280;63802;53.232;6.570;2024-03-07T04:22:45;102764.66;;;1.07;100.00
75221;BME280;63802;53.232;6.570;2024-03-07T04:25:10;102762.59;;;1.14;100.00
75221;BME280;63802;53.232;6.570;2024-03-07T04:27:36;102743.66;;;1.04;100.00
75221;BME280;63802;53.232;6.570;2024-03-07T04:30:07;102745.50;;;1.04;100.00
75221;BME280;63802;53.232;6.570;2024-03-07T04:32:39;102780.22;;;1.27;100.00
75221;BME280;63802;53.232;6.570;2024-03-07T04:35:13;102734.97;;;0.97;100.00
75221;BME280;63802;53.232;6.570;2024-03-07T04:37:41;102736.53;;;0.93;100.00
75221;BME280;63802;53.232;6.570;2024-03-07T04:40:08;102764.72;;;1.12;100.00
75221;BME280;63802;53.232;6.570;2024-03-07T04:43:07;102750.81;;;0.99;100.00
75221;BME280;63802;53.232;6.570;2024-03-07T04:45:33;102783.34;;;1.19;100.00
75221;BME280;63802;53.232;6.570;2024-03-07T04:48:12;102765.66;;;1.01;100.00
75221;BME280;63802;53.232;6.570;2024-03-07T04:50:37;102780.53;;;1.09;100.00
75221;BME280;63802;53.232;6.570;2024-03-07T04:53:31;102785.97;;;1.14;100.00
75221;BME280;63802;53.232;6.570;2024-03-07T04:56:06;102767.78;;;0.99;100.00
75221;BME280;63802;53.232;6.570;2024-03-07T04:58:38;102780.97;;;1.01;100.00
75221;BME280;63802;53.232;6.570;2024-03-07T05:01:20;102780.91;;;0.96;100.00
75221;BME280;63802;53.232;6.570;2024-03-07T05:03:46;102778.47;;;0.94;100.00
75221;BME280;63802;53.232;6.570;2024-03-07T05:06:11;102733.59;;;0.73;100.00
75221;BME280;63802;53.232;6.570;2024-03-07T05:08:41;102780.09;;;0.95;100.00
75221;BME280;63802;53.232;6.570;2024-03-07T05:11:12;102775.22;;;0.92;100.00
75221;BME280;63802;53.232;6.570;2024-03-07T05:13:50;102757.34;;;0.81;100.00
75221;BME280;63802;53.232;6.570;2024-03-07T05:16:16;102775.47;;;0.91;100.00
75221;BME280;63802;53.232;6.570;2024-03-07T05:18:46;102776.72;;;0.83;100.00
75221;BME280;63802;53.232;6.570;2024-03-07T05:21:46;102789.34;;;0.83;100.00
75221;BME280;63802;53.232;6.570;2024-03-07T05:24:15;102761.13;;;0.63;100.00
75221;BME280;63802;53.232;6.570;2024-03-07T05:26:41;102760.00;;;0.59;100.00
75221;BME280;63802;53.232;6.570;2024-03-07T05:29:09;102784.25;;;0.64;100.00
75221;BME280;63802;53.232;6.570;2024-03-07T05:31:37;102747.66;;;0.42;100.00
75221;BME280;63802;53.232;6.570;2024-03-07T05:34:11;102789.16;;;0.51;100.00
75221;BME280;63802;53.232;6.570;2024-03-07T05:36:37;102782.66;;;0.47;100.00
75221;BME280;63802;53.232;6.570;2024-03-07T05:39:29;102807.81;;;0.57;100.00
75221;BME280;63802;53.232;6.570;2024-03-07T05:41:55;102799.41;;;0.54;100.00
75221;BME280;63802;53.232;6.570;2024-03-07T05:44:28;102752.31;;;0.30;100.00
75221;BME280;63802;53.232;6.570;2024-03-07T05:46:54;102792.41;;;0.53;100.00
75221;BME280;63802;53.232;6.570;2024-03-07T05:49:22;102755.50;;;0.27;100.00
75221;BME280;63802;53.232;6.570;2024-03-07T05:51:56;102806.34;;;0.50;100.00
75221;BME280;63802;53.232;6.570;2024-03-07T05:54:42;102800.06;;;0.44;100.00
75221;BME280;63802;53.232;6.570;2024-03-07T05:57:34;102784.69;;;0.40;100.00
75221;BME280;63802;53.232;6.570;2024-03-07T06:00:01;102801.06;;;0.55;100.00
75221;BME280;63802;53.232;6.570;2024-03-07T06:02:41;102800.03;;;0.61;100.00
75221;BME280;63802;53.232;6.570;2024-03-07T06:18:23;102792.22;;;0.76;100.00
75221;BME280;63802;53.232;6.570;2024-03-07T06:21:43;102793.31;;;0.80;100.00
75221;BME280;63802;53.232;6.570;2024-03-07T06:24:09;102779.34;;;0.78;100.00
75221;BME280;63802;53.232;6.570;2024-03-07T06:26:45;102783.69;;;0.84;100.00
75221;BME280;63802;53.232;6.570;2024-03-07T06:29:34;102770.88;;;0.91;100.00
75221;BME280;63802;53.232;6.570;2024-03-07T06:32:12;102752.47;;;0.78;100.00
75221;BME280;63802;53.232;6.570;2024-03-07T06:34:37;102764.94;;;0.89;100.00
75221;BME280;63802;53.232;6.570;2024-03-07T06:37:11;102793.66;;;1.05;100.00
75221;BME280;63802;53.232;6.570;2024-03-07T06:40:07;102780.59;;;0.92;100.00
75221;BME280;63802;53.232;6.570;2024-03-07T06:42:35;102794.09;;;0.97;100.00
75221;BME280;63802;53.232;6.570;2024-03-07T06:45:03;102761.72;;;0.87;100.00
75221;BME280;63802;53.232;6.570;2024-03-07T06:47:54;102808.84;;;1.16;100.00
75221;BME280;63802;53.232;6.570;2024-03-07T06:50:39;102768.34;;;1.01;100.00
75221;BME280;63802;53.232;6.570;2024-03-07T06:53:30;102776.94;;;1.03;100.00
75221;BME280;63802;53.232;6.570;2024-03-07T07:06:32;102806.16;;;1.38;100.00
75221;BME280;63802;53.232;6.570;2024-03-07T07:09:05;102800.50;;;1.40;100.00
75221;BME280;63802;53.232;6.570;2024-03-07T07:14:34;102815.09;;;1.44;100.00
75221;BME280;63802;53.232;6.570;2024-03-07T07:17:20;102814.06;;;1.50;100.00
75221;BME280;63802;53.232;6.570;2024-03-07T07:19:54;102767.19;;;1.19;100.00
75221;BME280;63802;53.232;6.570;2024-03-07T07:22:41;102773.69;;;1.23;100.00
75221;BME280;63802;53.232;6.570;2024-03-07T07:25:07;102821.91;;;1.51;100.00
75221;BME280;63802;53.232;6.570;2024-03-07T07:27:50;102795.06;;;1.34;100.00
75221;BME280;63802;53.232;6.570;2024-03-07T07:30:18;102800.44;;;1.34;100.00
75221;BME280;63802;53.232;6.570;2024-03-07T07:32:45;102818.94;;;1.53;100.00
75221;BME280;63802;53.232;6.570;2024-03-07T07:35:26;102795.38;;;1.38;100.00
75221;BME280;63802;53.232;6.570;2024-03-07T07:38:00;102811.53;;;1.38;100.00
75221;BME280;63802;53.232;6.570;2024-03-07T07:40:35;102771.25;;;1.21;100.00
75221;BME280;63802;53.232;6.570;2024-03-07T07:43:08;102773.34;;;1.14;100.00
75221;BME280;63802;53.232;6.570;2024-03-07T07:45:46;102781.47;;;1.19;100.00
75221;BME280;63802;53.232;6.570;2024-03-07T07:49:06;102771.31;;;1.26;100.00
75221;BME280;63802;53.232;6.570;2024-03-07T07:51:33;102796.50;;;1.42;100.00
75221;BME280;63802;53.232;6.570;2024-03-07T07:54:15;102795.25;;;1.50;100.00
75221;BME280;63802;53.232;6.570;2024-03-07T07:56:59;102792.53;;;1.50;100.00
75221;BME280;63802;53.232;6.570;2024-03-07T08:00:02;102814.25;;;1.65;100.00
75221;BME280;63802;53.232;6.570;2024-03-07T08:02:29;102792.06;;;1.53;100.00
75221;BME280;63802;53.232;6.570;2024-03-07T08:04:58;102803.81;;;1.47;100.00
75221;BME280;63802;53.232;6.570;2024-03-07T08:07:46;102789.31;;;1.48;100.00
75221;BME280;63802;53.232;6.570;2024-03-07T08:13:16;102786.97;;;1.56;100.00
75221;BME280;63802;53.232;6.570;2024-03-07T08:16:01;102766.63;;;1.39;100.00
75221;BME280;63802;53.232;6.570;2024-03-07T08:18:57;102820.06;;;1.57;100.00
75221;BME280;63802;53.232;6.570;2024-03-07T08:24:43;102792.66;;;1.60;100.00
75221;BME280;63802;53.232;6.570;2024-03-07T08:27:27;102818.03;;;1.69;100.00
75221;BME280;63802;53.232;6.570;2024-03-07T08:29:59;102813.97;;;1.66;100.00
75221;BME280;63802;53.232;6.570;2024-03-07T08:32:55;102751.53;;;1.38;100.00
75221;BME280;63802;53.232;6.570;2024-03-07T08:35:56;102790.56;;;1.67;100.00
75221;BME280;63802;53.232;6.570;2024-03-07T08:39:00;102815.44;;;1.79;100.00
75221;BME280;63802;53.232;6.570;2024-03-07T08:41:35;102799.69;;;1.61;100.00
75221;BME280;63802;53.232;6.570;2024-03-07T08:44:34;102806.34;;;1.85;100.00
75221;BME280;63802;53.232;6.570;2024-03-07T08:47:09;102780.97;;;1.76;100.00
75221;BME280;63802;53.232;6.570;2024-03-07T08:53:18;102780.88;;;1.97;100.00
75221;BME280;63802;53.232;6.570;2024-03-07T08:56:09;102811.41;;;2.08;100.00
75221;BME280;63802;53.232;6.570;2024-03-07T09:09:20;102775.91;;;2.16;100.00
75221;BME280;63802;53.232;6.570;2024-03-07T09:14:50;102761.16;;;2.24;100.00
75221;BME280;63802;53.232;6.570;2024-03-07T09:24:39;102760.66;;;2.27;100.00
75221;BME280;63802;53.232;6.570;2024-03-07T09:27:29;102800.13;;;2.48;100.00
75221;BME280;63802;53.232;6.570;2024-03-07T09:33:14;102765.22;;;2.26;100.00
75221;BME280;63802;53.232;6.570;2024-03-07T09:36:13;102805.75;;;2.41;100.00
75221;BME280;63802;53.232;6.570;2024-03-07T09:39:02;102799.31;;;2.47;100.00
75221;BME280;63802;53.232;6.570;2024-03-07T09:41:29;102793.91;;;2.47;100.00
75221;BME280;63802;53.232;6.570;2024-03-07T09:44:44;102777.16;;;1.98;100.00
75221;BME280;63802;53.232;6.570;2024-03-07T09:51:07;102782.34;;;2.10;100.00
75221;BME280;63802;53.232;6.570;2024-03-07T09:54:06;102819.19;;;2.36;100.00
75221;BME280;63802;53.232;6.570;2024-03-07T09:56:48;102797.03;;;2.29;100.00
75221;BME280;63802;53.232;6.570;2024-03-07T10:00:00;102780.56;;;2.21;100.00
75221;BME280;63802;53.232;6.570;2024-03-07T10:03:10;102788.41;;;2.27;100.00
75221;BME280;63802;53.232;6.570;2024-03-07T10:05:41;102792.03;;;2.48;100.00
75221;BME280;63802;53.232;6.570;2024-03-07T10:08:07;102814.53;;;2.63;100.00
75221;BME280;63802;53.232;6.570;2024-03-07T10:11:02;102795.91;;;2.62;100.00
75221;BME280;63802;53.232;6.570;2024-03-07T10:13:34;102812.78;;;2.89;100.00
75221;BME280;63802;53.232;6.570;2024-03-07T10:16:24;102814.06;;;2.82;100.00
75221;BME280;63802;53.232;6.570;2024-03-07T10:18:53;102825.41;;;2.84;100.00
75221;BME280;63802;53.232;6.570;2024-03-07T10:21:41;102822.66;;;2.73;100.00
75221;BME280;63802;53.232;6.570;2024-03-07T10:24:27;102811.59;;;2.70;100.00
75221;BME280;63802;53.232;6.570;2024-03-07T10:26:54;102816.16;;;2.69;100.00
75221;BME280;63802;53.232;6.570;2024-03-07T10:29:40;102797.22;;;2.59;100.00
75221;BME280;63802;53.232;6.570;2024-03-07T10:32:18;102823.25;;;2.86;100.00
75221;BME280;63802;53.232;6.570;2024-03-07T10:35:41;102840.63;;;3.00;100.00
75221;BME280;63802;53.232;6.570;2024-03-07T11:03:34;102796.19;;;3.22;100.00
75221;BME280;63802;53.232;6.570;2024-03-07T11:52:25;102786.25;;;4.79;100.00
75221;BME280;63802;53.232;6.570;2024-03-07T12:01:56;102788.75;;;5.29;100.00
75221;BME280;63802;53.232;6.570;2024-03-07T12:04:30;102790.13;;;5.22;100.00
75221;BME280;63802;53.232;6.570;2024-03-07T12:17:02;102769.31;;;6.00;100.00
75221;BME280;63802;53.232;6.570;2024-03-07T12:19:42;102750.31;;;6.05;100.00
75221;BME280;63802;53.232;6.570;2024-03-07T12:26:20;102767.53;;;7.19;100.00
75221;BME280;63802;53.232;6.570;2024-03-07T12:29:28;102741.09;;;6.82;100.00
75221;BME280;63802;53.232;6.570;2024-03-07T12:32:33;102733.84;;;6.54;100.00
75221;BME280;63802;53.232;6.570;2024-03-07T12:35:21;102740.41;;;6.48;100.00
75221;BME280;63802;53.232;6.570;2024-03-07T12:38:37;102743.38;;;6.51;100.00
75221;BME280;63802;53.232;6.570;2024-03-07T12:54:12;102759.22;;;6.11;100.00
75221;BME280;63802;53.232;6.570;2024-03-07T12:59:46;102735.84;;;5.81;100.00
75221;BME280;63802;53.232;6.570;2024-03-07T13:02:25;102746.69;;;5.81;100.00
75221;BME280;63802;53.232;6.570;2024-03-07T13:05:27;102728.84;;;5.80;100.00
75221;BME280;63802;53.232;6.570;2024-03-07T13:08:14;102747.94;;;5.98;100.00
75221;BME280;63802;53.232;6.570;2024-03-07T13:10:53;102715.13;;;6.00;100.00
75221;BME280;63802;53.232;6.570;2024-03-07T13:13:39;102711.91;;;5.98;100.00
75221;BME280;63802;53.232;6.570;2024-03-07T13:16:05;102702.78;;;5.84;100.00
75221;BME280;63802;53.232;6.570;2024-03-07T13:18:43;102700.88;;;5.89;100.00
75221;BME280;63802;53.232;6.570;2024-03-07T13:21:34;102678.34;;;5.94;100.00
75221;BME280;63802;53.232;6.570;2024-03-07T13:24:33;102672.41;;;5.92;100.00
75221;BME280;63802;53.232;6.570;2024-03-07T13:30:19;102659.22;;;5.80;100.00
75221;BME280;63802;53.232;6.570;2024-03-07T13:33:24;102712.84;;;6.12;100.00
75221;BME280;63802;53.232;6.570;2024-03-07T13:39:13;102673.16;;;6.26;100.00
75221;BME280;63802;53.232;6.570;2024-03-07T13:41:46;102675.22;;;6.34;100.00
75221;BME280;63802;53.232;6.570;2024-03-07T13:47:19;102675.22;;;6.34;100.00
75221;BME280;63802;53.232;6.570;2024-03-07T13:56:39;102667.41;;;6.51;100.00
75221;BME280;63802;53.232;6.570;2024-03-07T14:06:02;102635.50;;;6.43;100.00
75221;BME280;63802;53.232;6.570;2024-03-07T14:39:01;102635.00;;;6.84;100.00
75221;BME280;63802;53.232;6.570;2024-03-07T14:44:59;102592.81;;;6.72;100.00
75221;BME280;63802;53.232;6.570;2024-03-07T14:48:00;102628.69;;;6.88;100.00
75221;BME280;63802;53.232;6.570;2024-03-07T14:54:12;102606.06;;;6.55;100.00
75221;BME280;63802;53.232;6.570;2024-03-07T14:56:38;102622.22;;;6.65;100.00
75221;BME280;63802;53.232;6.570;2024-03-07T15:03:15;102580.69;;;6.46;100.00
75221;BME280;63802;53.232;6.570;2024-03-07T15:06:16;102587.97;;;6.51;100.00
75221;BME280;63802;53.232;6.570;2024-03-07T15:15:09;102555.91;;;6.34;100.00
75221;BME280;63802;53.232;6.570;2024-03-07T15:18:01;102592.81;;;6.72;100.00
75221;BME280;63802;53.232;6.570;2024-03-07T15:25:41;102564.81;;;6.58;100.00
75221;BME280;63802;53.232;6.570;2024-03-07T15:28:33;102535.78;;;6.40;100.00
75221;BME280;63802;53.232;6.570;2024-03-07T15:31:29;102550.50;;;6.53;100.00
75221;BME280;63802;53.232;6.570;2024-03-07T15:34:02;102574.97;;;6.48;100.00
75221;BME280;63802;53.232;6.570;2024-03-07T15:36:37;102553.28;;;6.29;100.00
75221;BME280;63802;53.232;6.570;2024-03-07T15:39:03;102542.53;;;6.19;100.00
75221;BME280;63802;53.232;6.570;2024-03-07T15:42:10;102541.41;;;6.25;100.00
75221;BME280;63802;53.232;6.570;2024-03-07T15:48:09;102529.81;;;6.38;100.00
75221;BME280;63802;53.232;6.570;2024-03-07T15:50:36;102517.75;;;6.31;100.00
75221;BME280;63802;53.232;6.570;2024-03-07T15:53:03;102554.34;;;6.52;100.00
75221;BME280;63802;53.232;6.570;2024-03-07T15:55:32;102513.13;;;6.31;100.00
75221;BME280;63802;53.232;6.570;2024-03-07T15:58:03;102533.59;;;6.42;100.00
75221;BME280;63802;53.232;6.570;2024-03-07T16:04:02;102508.75;;;6.35;100.00
75221;BME280;63802;53.232;6.570;2024-03-07T16:06:49;102533.97;;;6.54;100.00
75221;BME280;63802;53.232;6.570;2024-03-07T16:09:44;102510.56;;;6.40;100.00
75221;BME280;63802;53.232;6.570;2024-03-07T16:12:28;102538.94;;;6.47;100.00
75221;BME280;63802;53.232;6.570;2024-03-07T16:15:01;102532.03;;;6.36;100.00
75221;BME280;63802;53.232;6.570;2024-03-07T16:17:27;102494.13;;;6.13;100.00
75221;BME280;63802;53.232;6.570;2024-03-07T16:22:38;102532.84;;;6.37;100.00
75221;BME280;63802;53.232;6.570;2024-03-07T16:25:25;102513.78;;;6.23;100.00
75221;BME280;63802;53.232;6.570;2024-03-07T16:28:11;102474.94;;;6.09;100.00
75221;BME280;63802;53.232;6.570;2024-03-07T16:34:13;102484.81;;;6.00;100.00
75221;BME280;63802;53.232;6.570;2024-03-07T16:37:06;102516.56;;;6.18;100.00
75221;BME280;63802;53.232;6.570;2024-03-07T16:40:31;102512.88;;;6.09;100.00
75221;BME280;63802;53.232;6.570;2024-03-07T16:43:17;102497.13;;;5.92;100.00
75221;BME280;63802;53.232;6.570;2024-03-07T16:48:55;102465.69;;;5.68;100.00
75221;BME280;63802;53.232;6.570;2024-03-07T16:52:02;102495.06;;;5.79;100.00
75221;BME280;63802;53.232;6.570;2024-03-07T17:01:09;102525.94;;;5.78;100.00
75221;BME280;63802;53.232;6.570;2024-03-07T17:04:16;102500.47;;;5.56;100.00
75221;BME280;63802;53.232;6.570;2024-03-07T17:07:16;102503.25;;;5.51;100.00
75221;BME280;63802;53.232;6.570;2024-03-07T17:23:05;102512.75;;;5.19;100.00
75221;BME280;63802;53.232;6.570;2024-03-07T17:36:16;102522.47;;;5.25;100.00
75221;BME280;63802;53.232;6.570;2024-03-07T17:42:49;102471.34;;;4.90;100.00
75221;BME280;63802;53.232;6.570;2024-03-07T17:45:36;102494.84;;;4.95;100.00
75221;BME280;63802;53.232;6.570;2024-03-07T17:48:39;102525.84;;;5.07;100.00
75221;BME280;63802;53.232;6.570;2024-03-07T17:54:01;102494.44;;;4.78;100.00
75221;BME280;63802;53.232;6.570;2024-03-07T17:56:34;102492.09;;;4.66;100.00
75221;BME280;63802;53.232;6.570;2024-03-07T17:59:09;102519.84;;;4.82;100.00
75221;BME280;63802;53.232;6.570;2024-03-07T18:02:23;102523.38;;;4.77;100.00
75221;BME280;63802;53.232;6.570;2024-03-07T18:04:59;102472.53;;;4.40;100.00
75221;BME280;63802;53.232;6.570;2024-03-07T18:10:49;102527.56;;;4.59;100.00
75221;BME280;63802;53.232;6.570;2024-03-07T18:23:42;102525.22;;;4.43;100.00
75221;BME280;63802;53.232;6.570;2024-03-07T18:26:46;102493.22;;;4.16;100.00
75221;BME280;63802;53.232;6.570;2024-03-07T18:29:13;102502.66;;;4.19;100.00
75221;BME280;63802;53.232;6.570;2024-03-07T18:32:07;102526.63;;;4.30;100.00
75221;BME280;63802;53.232;6.570;2024-03-07T18:34:59;102526.63;;;4.30;100.00
75221;BME280;63802;53.232;6.570;2024-03-07T18:38:09;102528.03;;;4.18;100.00
75221;BME280;63802;53.232;6.570;2024-03-07T18:40:45;102486.84;;;3.92;100.00
75221;BME280;63802;53.232;6.570;2024-03-07T18:50:16;102482.09;;;3.69;100.00
75221;BME280;63802;53.232;6.570;2024-03-07T18:52:47;102520.66;;;3.74;100.00
75221;BME280;63802;53.232;6.570;2024-03-07T18:55:22;102517.44;;;3.72;100.00
75221;BME280;63802;53.232;6.570;2024-03-07T19:03:14;102512.09;;;3.52;100.00
75221;BME280;63802;53.232;6.570;2024-03-07T19:05:46;102504.53;;;3.49;100.00
75221;BME280;63802;53.232;6.570;2024-03-07T19:08:42;102531.53;;;3.49;100.00
75221;BME280;63802;53.232;6.570;2024-03-07T19:14:57;102521.56;;;3.39;100.00
75221;BME280;63802;53.232;6.570;2024-03-07T20:29:24;102472.75;;;2.45;100.00
75221;BME280;63802;53.232;6.570;2024-03-07T20:32:14;102468.47;;;2.39;100.00
75221;BME280;63802;53.232;6.570;2024-03-07T20:35:06;102426.13;;;2.20;100.00
75221;BME280;63802;53.232;6.570;2024-03-07T20:37:55;102460.91;;;2.36;100.00
75221;BME280;63802;53.232;6.570;2024-03-07T20:40:43;102457.69;;;2.39;100.00
75221;BME280;63802;53.232;6.570;2024-03-07T20:46:38;102438.84;;;2.44;100.00
75221;BME280;63802;53.232;6.570;2024-03-07T20:49:31;102445.81;;;2.45;100.00
75221;BME280;63802;53.232;6.570;2024-03-07T20:55:11;102445.81;;;2.35;100.00
75221;BME280;63802;53.232;6.570;2024-03-07T20:57:51;102398.66;;;2.13;100.00
75221;BME280;63802;53.232;6.570;2024-03-07T21:04:35;102416.44;;;2.24;100.00
75221;BME280;63802;53.232;6.570;2024-03-07T21:08:20;102433.44;;;2.34;100.00
75221;BME280;63802;53.232;6.570;2024-03-07T21:14:12;102402.97;;;2.19;100.00